createdAt,value
2023-01-19T00:01:34.976Z,14.00
2023-01-19T00:04:04.937Z,10.33
2023-01-19T00:06:34.702Z,16.30
2023-01-19T00:09:04.561Z,13.17
2023-01-19T00:11:36.869Z,11.90
2023-01-19T00:14:07.128Z,10.60
2023-01-19T00:16:37.153Z,13.83
2023-01-19T00:19:07.194Z,14.70
2023-01-19T00:21:36.914Z,13.70
2023-01-19T00:24:07.355Z,13.57
2023-01-19T00:26:40.484Z,11.00
2023-01-19T00:29:10.479Z,16.03
2023-01-19T00:31:40.967Z,11.67
2023-01-19T00:34:11.281Z,12.87
2023-01-19T00:36:40.984Z,14.83
2023-01-19T00:39:11.065Z,11.53
2023-01-19T00:41:55.842Z,14.93
2023-01-19T00:44:25.519Z,11.30
2023-01-19T00:46:55.188Z,12.70
2023-01-19T00:49:24.883Z,13.93
2023-01-19T00:51:54.545Z,11.40
2023-01-19T00:54:24.446Z,11.00
2023-01-19T00:56:57.424Z,17.20
2023-01-19T00:59:28.541Z,13.87
2023-01-19T01:01:58.430Z,12.10
2023-01-19T01:04:28.274Z,14.63
2023-01-19T01:06:57.967Z,14.23
2023-01-19T01:09:27.759Z,13.03
2023-01-19T01:11:59.995Z,12.30
2023-01-19T01:14:29.645Z,16.30
2023-01-19T01:16:59.342Z,15.20
2023-01-19T01:19:29.127Z,15.40
2023-01-19T01:21:58.813Z,14.23
2023-01-19T01:24:28.468Z,19.77
2023-01-19T01:27:00.770Z,13.20
2023-01-19T01:29:30.447Z,11.97
2023-01-19T01:32:00.136Z,11.23
2023-01-19T01:34:29.929Z,12.07
2023-01-19T01:36:59.754Z,17.23
2023-01-19T01:39:29.580Z,14.90
2023-01-19T01:42:01.853Z,14.40
2023-01-19T01:44:50.007Z,13.40
2023-01-19T01:47:29.707Z,18.07
2023-01-19T01:50:06.431Z,13.60
2023-01-19T01:52:39.573Z,15.00
2023-01-19T01:55:11.115Z,14.60
2023-01-19T01:57:49.052Z,13.20
2023-01-19T02:00:19.909Z,11.53
2023-01-19T02:02:53.607Z,11.43
2023-01-19T02:05:27.154Z,14.20
2023-01-19T02:08:13.885Z,12.80
2023-01-19T02:10:57.368Z,13.10
2023-01-19T02:13:30.752Z,10.13
2023-01-19T02:16:03.614Z,13.83
2023-01-19T02:18:34.900Z,15.17
2023-01-19T02:21:12.844Z,15.30
2023-01-19T02:23:47.719Z,13.77
2023-01-19T02:26:21.663Z,16.70
2023-01-19T02:28:57.510Z,17.43
2023-01-19T02:31:27.741Z,14.77
2023-01-19T02:33:57.810Z,13.70
2023-01-19T02:36:30.112Z,15.00
2023-01-19T02:39:04.432Z,13.23
2023-01-19T02:41:41.033Z,13.83
2023-01-19T02:44:12.754Z,13.77
2023-01-19T02:46:42.377Z,14.27
2023-01-19T02:49:12.034Z,17.10
2023-01-19T02:51:42.148Z,14.97
2023-01-19T02:54:48.170Z,14.13
2023-01-19T02:57:43.713Z,19.57
2023-01-19T03:00:24.395Z,14.83
2023-01-19T03:03:06.063Z,19.00
2023-01-19T03:05:49.372Z,18.67
2023-01-19T03:08:25.475Z,12.40
2023-01-19T03:11:04.342Z,17.07
2023-01-19T03:13:44.601Z,19.63
2023-01-19T03:16:21.865Z,18.10
2023-01-19T03:18:56.618Z,16.93
2023-01-19T03:21:30.228Z,13.73
2023-01-19T03:24:04.197Z,17.40
2023-01-19T03:26:41.693Z,16.63
2023-01-19T03:29:13.138Z,16.73
2023-01-19T03:31:46.547Z,15.30
2023-01-19T03:34:22.055Z,13.03
2023-01-19T03:36:55.658Z,16.30
2023-01-19T03:39:27.509Z,16.37
2023-01-19T03:42:03.995Z,17.33
2023-01-19T03:44:37.232Z,16.70
2023-01-19T03:47:08.850Z,15.10
2023-01-19T03:49:40.029Z,17.13
2023-01-19T03:52:09.767Z,16.80
2023-01-19T03:54:39.747Z,16.47
2023-01-19T03:57:12.962Z,18.20
2023-01-19T03:59:42.756Z,17.03
2023-01-19T04:02:12.571Z,16.23
2023-01-19T04:04:42.312Z,17.93
2023-01-19T04:07:12.868Z,14.00
2023-01-19T04:09:43.513Z,13.43
2023-01-19T04:12:15.744Z,16.10
2023-01-19T04:14:45.396Z,19.37
2023-01-19T04:17:16.182Z,15.00
2023-01-19T04:19:45.979Z,11.33
2023-01-19T04:22:15.613Z,14.23
2023-01-19T04:24:45.233Z,14.40
2023-01-19T04:27:17.769Z,17.43
2023-01-19T04:29:47.454Z,18.83
2023-01-19T04:32:17.535Z,12.23
2023-01-19T04:34:47.237Z,15.47
2023-01-19T04:37:16.899Z,14.27
2023-01-19T04:39:46.581Z,21.47
2023-01-19T04:42:19.815Z,13.37
2023-01-19T04:44:49.484Z,15.47
2023-01-19T04:47:19.158Z,16.07
2023-01-19T04:49:48.891Z,14.23
2023-01-19T04:52:18.633Z,14.20
2023-01-19T04:54:48.517Z,15.03
2023-01-19T04:57:20.754Z,15.63
2023-01-19T04:59:50.376Z,14.07
2023-01-19T05:02:20.437Z,13.80
2023-01-19T05:04:50.108Z,12.17
2023-01-19T05:07:20.233Z,16.97
2023-01-19T05:09:49.959Z,13.03
2023-01-19T05:12:22.465Z,11.40
2023-01-19T05:14:52.109Z,13.70
2023-01-19T05:17:21.800Z,19.10
2023-01-19T05:19:51.543Z,14.67
2023-01-19T05:22:21.259Z,14.57
2023-01-19T05:24:50.873Z,19.47
2023-01-19T05:27:23.275Z,12.17
2023-01-19T05:29:52.950Z,13.60
2023-01-19T05:32:22.616Z,20.90
2023-01-19T05:34:52.322Z,14.57
2023-01-19T05:37:22.137Z,12.37
2023-01-19T05:39:51.822Z,13.80
2023-01-19T05:42:24.142Z,12.30
2023-01-19T05:44:53.800Z,13.83
2023-01-19T05:47:23.480Z,19.63
2023-01-19T05:49:53.097Z,11.20
2023-01-19T05:52:22.794Z,15.30
2023-01-19T05:54:52.491Z,15.57
2023-01-19T05:57:24.821Z,11.47
2023-01-19T05:59:54.558Z,11.60
2023-01-19T06:02:28.753Z,13.10
2023-01-19T06:04:59.245Z,15.17
2023-01-19T06:07:29.266Z,16.07
2023-01-19T06:09:59.106Z,12.50
2023-01-19T06:12:32.587Z,15.90
2023-01-19T06:15:02.298Z,15.10
2023-01-19T06:17:31.977Z,12.97
2023-01-19T06:20:01.654Z,11.53
2023-01-19T06:22:31.340Z,10.80
2023-01-19T06:25:01.040Z,12.60
2023-01-19T06:27:33.307Z,12.80
2023-01-19T06:30:03.005Z,14.87
2023-01-19T06:32:32.648Z,13.70
2023-01-19T06:35:02.356Z,16.73
2023-01-19T06:37:32.098Z,13.60
2023-01-19T06:40:01.785Z,12.13
2023-01-19T06:42:34.473Z,11.97
2023-01-19T06:45:04.162Z,11.17
2023-01-19T06:47:34.483Z,11.73
2023-01-19T06:50:04.574Z,11.27
2023-01-19T06:52:34.833Z,11.30
2023-01-19T06:55:04.489Z,9.80
2023-01-19T06:57:36.930Z,11.67
2023-01-19T07:00:08.968Z,11.80
2023-01-19T07:02:38.905Z,12.23
2023-01-19T07:05:09.684Z,9.43
2023-01-19T07:07:39.787Z,12.10
2023-01-19T07:10:11.827Z,9.77
2023-01-19T07:12:45.120Z,12.30
2023-01-19T07:15:14.992Z,11.60
2023-01-19T07:17:44.866Z,7.20
2023-01-19T07:20:17.521Z,7.70
2023-01-19T07:22:47.388Z,9.87
2023-01-19T07:25:18.010Z,9.33
2023-01-19T07:27:50.369Z,7.73
2023-01-19T07:30:20.334Z,7.00
2023-01-19T07:32:50.209Z,10.83
2023-01-19T07:35:22.183Z,8.70
2023-01-19T07:37:51.959Z,7.57
2023-01-19T07:40:23.928Z,7.80
2023-01-19T07:42:56.375Z,10.70
2023-01-19T07:45:28.046Z,7.33
2023-01-19T07:47:57.763Z,5.77
2023-01-19T07:50:29.330Z,8.27
2023-01-19T07:52:59.796Z,9.23
2023-01-19T07:55:29.622Z,8.47
2023-01-19T07:58:03.994Z,7.00
2023-01-19T08:00:33.722Z,9.10
2023-01-19T08:03:04.379Z,9.97
2023-01-19T08:05:35.631Z,7.10
2023-01-19T08:08:05.630Z,6.43
2023-01-19T08:10:35.561Z,5.13
2023-01-19T08:13:08.328Z,7.73
2023-01-19T08:15:38.134Z,5.20
2023-01-19T08:18:09.831Z,5.80
2023-01-19T08:20:39.903Z,9.70
2023-01-19T08:23:09.633Z,6.43
2023-01-19T08:25:42.264Z,8.13
2023-01-19T08:28:16.395Z,4.83
2023-01-19T08:30:47.453Z,3.50
2023-01-19T08:33:17.678Z,4.67
2023-01-19T08:35:51.056Z,3.43
2023-01-19T08:38:21.145Z,3.67
2023-01-19T08:40:51.667Z,5.20
2023-01-19T08:43:24.010Z,5.13
2023-01-19T08:45:56.500Z,3.30
2023-01-19T08:48:26.865Z,3.50
2023-01-19T08:50:56.622Z,2.87
2023-01-19T08:53:26.959Z,2.90
2023-01-19T08:56:00.073Z,2.67
2023-01-19T08:58:32.439Z,2.77
2023-01-19T09:01:04.053Z,3.20
2023-01-19T09:03:34.066Z,3.17
2023-01-19T09:06:03.833Z,3.13
2023-01-19T09:08:33.568Z,5.07
2023-01-19T09:11:03.344Z,3.33
2023-01-19T09:13:35.608Z,7.07
2023-01-19T09:16:07.810Z,2.30
2023-01-19T09:18:38.521Z,2.63
2023-01-19T09:21:08.564Z,4.37
2023-01-19T09:23:38.265Z,4.17
2023-01-19T09:26:09.003Z,3.40
2023-01-19T09:28:41.309Z,3.63
2023-01-19T09:31:11.604Z,4.83
2023-01-19T09:33:41.337Z,3.83
2023-01-19T09:36:11.212Z,4.13
2023-01-19T09:38:41.132Z,4.30
2023-01-19T09:41:19.746Z,4.17
2023-01-19T09:43:56.817Z,4.20
2023-01-19T09:46:32.801Z,5.10
2023-01-19T09:49:06.760Z,6.00
2023-01-19T09:51:39.174Z,5.53
2023-01-19T09:54:15.820Z,5.97
2023-01-19T09:56:46.451Z,5.80
2023-01-19T09:59:28.027Z,6.27
2023-01-19T10:02:09.629Z,6.00
2023-01-19T10:04:42.684Z,6.50
2023-01-19T10:07:18.773Z,6.97
2023-01-19T10:10:11.165Z,6.90
2023-01-19T10:12:51.143Z,6.27
2023-01-19T10:15:33.239Z,9.20
2023-01-19T10:18:20.249Z,6.80
2023-01-19T10:20:53.679Z,6.73
2023-01-19T10:23:39.799Z,9.73
2023-01-19T10:26:14.888Z,8.37
2023-01-19T10:28:46.063Z,8.47
2023-01-19T10:31:21.395Z,9.70
2023-01-19T10:33:52.361Z,8.83
2023-01-19T10:36:24.994Z,8.80
2023-01-19T10:38:54.912Z,9.00
2023-01-19T10:41:29.755Z,7.67
2023-01-19T10:44:04.393Z,9.30
2023-01-19T10:46:44.669Z,9.33
2023-01-19T10:49:28.139Z,10.10
2023-01-19T10:51:59.179Z,10.50
2023-01-19T10:54:30.519Z,9.77
2023-01-19T10:57:02.843Z,15.13
2023-01-19T10:59:35.085Z,16.03
2023-01-19T11:02:21.561Z,16.20
2023-01-19T11:04:53.328Z,17.77
2023-01-19T11:07:24.794Z,20.83
2023-01-19T11:10:15.559Z,13.00
2023-01-19T11:12:46.733Z,11.50
2023-01-19T11:15:19.113Z,13.97
2023-01-19T11:17:53.671Z,10.03
2023-01-19T11:20:26.913Z,13.30
2023-01-19T11:23:22.450Z,12.50
2023-01-19T11:25:54.361Z,20.70
2023-01-19T11:28:30.067Z,19.83
2023-01-19T11:31:01.977Z,153.73
2023-01-19T11:33:40.180Z,18.87
2023-01-19T11:36:17.803Z,17.20
2023-01-19T11:38:50.573Z,13.33
2023-01-19T11:41:22.760Z,19.30
2023-01-19T11:43:56.372Z,12.73
2023-01-19T11:46:29.723Z,8.97
2023-01-19T11:49:05.619Z,12.53
2023-01-19T11:51:41.786Z,11.00
2023-01-19T11:54:23.760Z,12.57
2023-01-19T11:56:57.136Z,13.10
2023-01-19T11:59:27.045Z,8.97
2023-01-19T12:02:00.263Z,9.43
2023-01-19T12:04:36.049Z,12.40
2023-01-19T12:07:10.694Z,12.80
2023-01-19T12:09:45.626Z,9.50
2023-01-19T12:12:18.560Z,14.57
2023-01-19T12:14:57.436Z,14.67
2023-01-19T12:17:30.272Z,14.80
2023-01-19T12:20:15.949Z,11.80
2023-01-19T12:22:50.858Z,16.93
2023-01-19T12:25:24.929Z,14.70
2023-01-19T12:27:56.157Z,15.13
2023-01-19T12:30:28.499Z,12.90
2023-01-19T12:33:29.076Z,18.03
2023-01-19T12:36:04.060Z,15.10
2023-01-19T12:38:47.212Z,19.00
2023-01-19T12:41:22.677Z,21.90
2023-01-19T12:44:07.842Z,13.00
2023-01-19T12:46:37.988Z,27.73
2023-01-19T12:49:13.561Z,20.17
2023-01-19T12:51:46.616Z,17.03
2023-01-19T12:54:27.982Z,18.17
2023-01-19T12:57:03.494Z,20.03
2023-01-19T12:59:40.100Z,16.77
2023-01-19T13:02:43.917Z,20.30
2023-01-19T13:05:47.572Z,18.73
2023-01-19T13:08:24.886Z,18.93
2023-01-19T13:11:26.260Z,19.00
2023-01-19T13:14:32.221Z,15.30
2023-01-19T13:17:20.094Z,14.43
2023-01-19T13:20:02.544Z,15.60
2023-01-19T13:23:05.248Z,13.70
2023-01-19T13:25:38.353Z,17.27
2023-01-19T13:28:12.728Z,18.40
2023-01-19T13:30:55.003Z,22.60
2023-01-19T13:33:27.078Z,26.10
2023-01-19T13:35:59.471Z,21.53
2023-01-19T13:38:32.928Z,23.50
2023-01-19T13:41:06.497Z,25.80
2023-01-19T13:43:40.957Z,17.70
2023-01-19T13:46:14.239Z,27.40
2023-01-19T13:48:56.710Z,19.95
2023-01-19T13:51:26.414Z,19.53
2023-01-19T13:53:57.301Z,30.20
2023-01-19T13:56:31.689Z,15.13
2023-01-19T13:59:10.283Z,28.40
2023-01-19T14:01:45.305Z,14.50
2023-01-19T14:04:32.452Z,22.63
2023-01-19T14:07:05.273Z,20.90
2023-01-19T14:09:35.128Z,16.13
2023-01-19T14:12:15.224Z,17.57
2023-01-19T14:14:46.808Z,15.83
2023-01-19T14:17:28.657Z,18.33
2023-01-19T14:20:00.981Z,21.67
2023-01-19T14:22:45.079Z,19.57
2023-01-19T14:25:29.371Z,19.27
2023-01-19T14:28:39.405Z,27.23
2023-01-19T14:31:23.689Z,21.63
2023-01-19T14:33:55.345Z,19.70
2023-01-19T14:36:33.289Z,13.63
2023-01-19T14:39:03.996Z,28.23
2023-01-19T14:41:41.723Z,21.30
2023-01-19T14:44:20.411Z,19.40
2023-01-19T14:46:51.544Z,15.07
2023-01-19T14:49:24.947Z,14.83
2023-01-19T14:51:56.084Z,19.23
2023-01-19T14:54:34.126Z,20.60
2023-01-19T14:57:03.833Z,16.57
2023-01-19T14:59:36.060Z,20.23
2023-01-19T15:02:05.802Z,21.87
2023-01-19T15:04:35.608Z,17.60
2023-01-19T15:07:05.483Z,17.30
2023-01-19T15:09:35.317Z,22.47
2023-01-19T15:12:05.189Z,15.57
2023-01-19T15:14:37.420Z,23.83
2023-01-19T15:17:07.262Z,22.30
2023-01-19T15:19:36.957Z,19.73
2023-01-19T15:22:14.853Z,26.00
2023-01-19T15:24:44.524Z,23.93
2023-01-19T15:27:14.860Z,20.33
2023-01-19T15:29:47.081Z,21.83
2023-01-19T15:32:17.731Z,16.77
2023-01-19T15:34:47.374Z,20.10
2023-01-19T15:37:17.036Z,20.97
2023-01-19T15:39:46.688Z,18.87
2023-01-19T15:42:17.366Z,22.53
2023-01-19T15:44:49.626Z,19.03
2023-01-19T15:47:19.522Z,20.67
2023-01-19T15:49:49.143Z,26.93
2023-01-19T15:52:18.980Z,22.83
2023-01-19T15:54:48.603Z,27.40
2023-01-19T15:57:18.294Z,18.50
2023-01-19T15:59:51.494Z,25.60
2023-01-19T16:02:21.392Z,28.10
2023-01-19T16:04:51.381Z,32.97
2023-01-19T16:07:21.284Z,28.47
2023-01-19T16:09:50.951Z,25.43
2023-01-19T16:12:20.609Z,28.30
2023-01-19T16:14:52.819Z,25.27
2023-01-19T16:17:22.947Z,22.00
2023-01-19T16:19:52.591Z,21.77
2023-01-19T16:22:22.225Z,30.80
2023-01-19T16:24:53.101Z,31.07
2023-01-19T16:27:22.780Z,29.13
2023-01-19T16:29:55.083Z,25.37
2023-01-19T16:32:24.790Z,26.43
2023-01-19T16:34:54.420Z,23.47
2023-01-19T16:37:24.060Z,23.53
2023-01-19T16:39:54.200Z,31.33
2023-01-19T16:42:23.945Z,24.07
2023-01-19T16:44:56.537Z,21.40
2023-01-19T16:47:26.173Z,29.97
2023-01-19T16:49:56.157Z,27.30
2023-01-19T16:52:25.994Z,31.40
2023-01-19T16:54:55.638Z,20.47
2023-01-19T16:57:25.449Z,36.00
2023-01-19T16:59:57.670Z,30.50
2023-01-19T17:02:27.369Z,31.10
2023-01-19T17:04:57.152Z,23.90
2023-01-19T17:07:26.994Z,31.80
2023-01-19T17:09:57.548Z,67.27
2023-01-19T17:12:27.532Z,24.50
2023-01-19T17:14:59.766Z,32.00
2023-01-19T17:17:44.484Z,30.40
2023-01-19T17:20:15.067Z,28.40
2023-01-19T17:22:44.729Z,28.47
2023-01-19T17:25:14.345Z,28.63
2023-01-19T17:27:43.985Z,107.07
2023-01-19T17:30:17.184Z,32.83
2023-01-19T17:32:46.850Z,27.53
2023-01-19T17:35:16.507Z,41.07
2023-01-19T17:37:46.478Z,34.73
2023-01-19T17:40:16.223Z,37.73
2023-01-19T17:42:46.137Z,41.93
2023-01-19T17:45:18.658Z,36.70
2023-01-19T17:47:50.926Z,40.67
2023-01-19T17:50:21.124Z,33.53
2023-01-19T17:52:51.062Z,38.67
2023-01-19T17:55:20.796Z,41.20
2023-01-19T17:57:50.748Z,35.70
2023-01-19T18:00:24.120Z,34.23
2023-01-19T18:02:54.389Z,49.57
2023-01-19T18:05:25.548Z,65.83
2023-01-19T18:07:55.484Z,91.83
2023-01-19T18:10:25.581Z,68.70
2023-01-19T18:12:55.245Z,53.53
2023-01-19T18:15:27.812Z,160.17
2023-01-19T18:17:57.794Z,37.10
2023-01-19T18:20:27.452Z,240.37
2023-01-19T18:22:57.134Z,122.03
2023-01-19T18:25:27.047Z,153.07
2023-01-19T18:27:56.690Z,73.77
2023-01-19T18:30:31.172Z,92.07
2023-01-19T18:33:01.140Z,49.33
2023-01-19T18:35:31.133Z,48.87
2023-01-19T18:38:01.229Z,69.90
2023-01-19T18:40:30.989Z,120.20
2023-01-19T18:43:00.678Z,43.77
2023-01-19T18:45:32.942Z,92.87
2023-01-19T18:48:03.470Z,98.20
2023-01-19T18:50:34.022Z,65.00
2023-01-19T18:53:03.997Z,74.87
2023-01-19T18:55:33.678Z,48.73
2023-01-19T18:58:04.250Z,49.83
2023-01-19T19:00:36.440Z,48.30
2023-01-19T19:03:10.303Z,51.50
2023-01-19T19:05:40.386Z,60.30
2023-01-19T19:08:10.347Z,44.57
2023-01-19T19:10:40.300Z,45.53
2023-01-19T19:13:10.710Z,50.67
2023-01-19T19:15:44.415Z,77.57
2023-01-19T19:18:16.330Z,55.17
2023-01-19T19:20:46.566Z,52.30
2023-01-19T19:23:16.229Z,54.40
2023-01-19T19:25:46.178Z,48.43
2023-01-19T19:28:15.852Z,78.57
2023-01-19T19:30:51.426Z,55.63
2023-01-19T19:33:22.623Z,50.90
2023-01-19T19:35:59.133Z,45.77
2023-01-19T19:38:29.417Z,166.97
2023-01-19T19:41:00.490Z,52.00
2023-01-19T19:43:30.474Z,60.17
2023-01-19T19:46:04.926Z,51.60
2023-01-19T19:48:37.574Z,49.10
2023-01-19T19:51:17.953Z,127.80
2023-01-19T19:53:51.399Z,53.97
2023-01-19T19:56:23.572Z,54.20
2023-01-19T19:58:54.784Z,85.05
2023-01-19T20:01:32.557Z,63.00
2023-01-19T20:04:09.016Z,55.17
2023-01-19T20:06:41.586Z,64.00
2023-01-19T20:09:14.129Z,59.17
2023-01-19T20:11:44.966Z,61.87
2023-01-19T20:14:16.883Z,62.23
2023-01-19T20:16:49.699Z,65.33
2023-01-19T20:19:19.853Z,56.23
2023-01-19T20:21:49.853Z,54.50
2023-01-19T20:24:21.895Z,52.20
2023-01-19T20:26:56.331Z,57.77
2023-01-19T20:29:26.557Z,56.17
2023-01-19T20:31:59.572Z,55.20
2023-01-19T20:34:33.371Z,55.73
2023-01-19T20:37:04.822Z,62.10
2023-01-19T20:39:36.792Z,66.03
2023-01-19T20:42:11.295Z,63.93
2023-01-19T20:44:41.299Z,60.73
2023-01-19T20:47:13.868Z,53.57
2023-01-19T20:49:43.888Z,57.73
2023-01-19T20:52:13.661Z,57.30
2023-01-19T20:54:43.397Z,52.23
2023-01-19T20:57:13.411Z,58.10
2023-01-19T20:59:43.405Z,55.77
2023-01-19T21:02:17.468Z,55.03
2023-01-19T21:04:47.440Z,55.20
2023-01-19T21:07:17.092Z,56.60
2023-01-19T21:09:46.986Z,56.70
2023-01-19T21:12:16.648Z,57.10
2023-01-19T21:14:46.543Z,61.37
2023-01-19T21:17:18.873Z,57.50
2023-01-19T21:19:48.900Z,60.70
2023-01-19T21:22:18.706Z,53.73
2023-01-19T21:24:49.550Z,55.37
2023-01-19T21:27:19.208Z,51.67
2023-01-19T21:29:50.337Z,56.90
2023-01-19T21:32:22.716Z,54.93
2023-01-19T21:34:52.672Z,60.33
2023-01-19T21:37:22.653Z,54.57
2023-01-19T21:39:52.549Z,58.60
2023-01-19T21:42:22.379Z,60.40
2023-01-19T21:44:52.357Z,62.00
2023-01-19T21:47:25.759Z,52.03
2023-01-19T21:49:55.590Z,58.67
2023-01-19T21:52:25.247Z,57.10
2023-01-19T21:54:54.858Z,58.30
2023-01-19T21:57:24.576Z,53.33
2023-01-19T21:59:54.195Z,62.53
2023-01-19T22:02:37.984Z,59.47
2023-01-19T22:05:09.411Z,63.47
2023-01-19T22:07:39.167Z,60.40
2023-01-19T22:10:11.038Z,60.73
2023-01-19T22:12:41.156Z,65.67
2023-01-19T22:15:12.545Z,61.90
2023-01-19T22:17:44.988Z,62.10
2023-01-19T22:20:15.023Z,55.43
2023-01-19T22:22:44.652Z,59.03
2023-01-19T22:25:15.210Z,56.63
2023-01-19T22:27:45.165Z,55.27
2023-01-19T22:30:14.977Z,58.47
2023-01-19T22:32:47.461Z,54.73
2023-01-19T22:35:17.168Z,55.57
2023-01-19T22:37:46.788Z,58.20
2023-01-19T22:40:16.784Z,64.77
2023-01-19T22:42:48.498Z,56.83
2023-01-19T22:45:18.176Z,56.40
2023-01-19T22:47:50.380Z,60.30
2023-01-19T22:50:20.109Z,54.33
2023-01-19T22:52:49.761Z,51.27
2023-01-19T22:55:19.390Z,55.30
2023-01-19T22:57:49.179Z,50.80
2023-01-19T23:00:20.118Z,49.43
2023-01-19T23:02:52.544Z,49.57
2023-01-19T23:05:22.181Z,53.83
2023-01-19T23:07:51.826Z,48.67
2023-01-19T23:10:21.433Z,50.83
2023-01-19T23:12:51.321Z,46.47
2023-01-19T23:15:20.938Z,48.13
2023-01-19T23:17:53.678Z,57.10
2023-01-19T23:20:23.308Z,51.47
2023-01-19T23:22:52.960Z,50.57
2023-01-19T23:25:22.588Z,49.97
2023-01-19T23:27:52.194Z,51.37
2023-01-19T23:30:22.335Z,48.90
2023-01-19T23:32:54.551Z,49.13
2023-01-19T23:35:24.204Z,50.50
2023-01-19T23:37:53.908Z,56.13
2023-01-19T23:40:24.552Z,50.47
2023-01-19T23:42:54.190Z,50.47
2023-01-19T23:45:24.354Z,55.93
2023-01-19T23:47:56.545Z,52.90
2023-01-19T23:50:26.163Z,51.23
2023-01-19T23:52:55.790Z,51.13
2023-01-19T23:55:25.391Z,49.53
2023-01-19T23:57:55.033Z,52.50
